Time;durP1;ratioP1;P1;durP2;ratioP2;P2;SDS_P1;SDS_P2;PMS_P1;PMS_P2;Temp;Humidity;BMP_temperature;BMP_pressure;BME280_temperature;BME280_humidity;BME280_pressure;Samples;Min_cycle;Max_cycle;Signal;HPM_P1;HPM_P2
2023/03/11 00:01:20;0.00;0.00;0.62;0.00;0.00;0.62;1.47;1.27;;;20.00;21.20;;;;;;2252063;61;20915;-52
2023/03/11 00:04:05;0.00;0.00;0.62;0.00;0.00;0.62;2.20;1.43;;;20.00;21.20;;;;;;2252063;61;20557;-49
2023/03/11 00:06:49;0.00;0.00;0.62;0.00;0.00;0.62;1.73;1.10;;;19.90;21.10;;;;;;2252157;61;20449;-52
2023/03/11 00:09:35;0.00;0.00;0.62;0.00;0.00;0.62;1.80;1.30;;;19.90;21.10;;;;;;2251407;61;20821;-56
2023/03/11 00:12:21;0.00;0.00;0.62;0.00;0.00;0.62;1.60;1.10;;;19.90;21.10;;;;;;2252353;61;20410;-53
2023/03/11 00:15:07;0.00;0.00;0.62;0.00;0.00;0.62;1.87;1.40;;;19.90;21.10;;;;;;2252581;61;20391;-49
2023/03/11 00:17:52;0.00;0.00;0.62;0.00;0.00;0.62;1.83;1.17;;;19.90;21.10;;;;;;2251658;61;20500;-53
2023/03/11 00:20:39;0.00;0.00;0.62;0.00;0.00;0.62;2.00;1.33;;;19.90;21.20;;;;;;2251884;61;21024;-52
2023/03/11 00:23:25;0.00;0.00;0.62;0.00;0.00;0.62;1.70;1.23;;;19.90;21.10;;;;;;2252241;61;20355;-51
2023/03/11 00:26:10;0.00;0.00;0.62;0.00;0.00;0.62;1.77;1.30;;;19.90;21.10;;;;;;2251706;61;21171;-49
2023/03/11 00:28:56;0.00;0.00;0.62;0.00;0.00;0.62;1.83;1.30;;;19.90;21.10;;;;;;2251953;61;20366;-49
2023/03/11 00:31:41;0.00;0.00;0.62;0.00;0.00;0.62;1.60;1.00;;;19.90;21.10;;;;;;2251444;61;20406;-52
2023/03/11 00:34:26;0.00;0.00;0.62;0.00;0.00;0.62;1.70;1.33;;;19.90;21.10;;;;;;2251654;61;20441;-54
2023/03/11 00:37:11;0.00;0.00;0.62;0.00;0.00;0.62;1.80;1.10;;;19.90;21.10;;;;;;2252368;61;20955;-52
2023/03/11 00:39:56;0.00;0.00;0.62;0.00;0.00;0.62;1.73;1.07;;;19.90;21.10;;;;;;2251208;61;20447;-50
2023/03/11 00:42:41;0.00;0.00;0.62;0.00;0.00;0.62;1.70;1.13;;;19.90;21.10;;;;;;2252436;61;20358;-49
2023/03/11 00:45:30;0.00;0.00;0.62;0.00;0.00;0.62;1.77;1.10;;;19.90;21.10;;;;;;2251585;61;20421;-56
2023/03/11 00:48:15;0.00;0.00;0.62;0.00;0.00;0.62;1.83;1.30;;;19.90;21.10;;;;;;2251756;61;20425;-54
2023/03/11 00:51:00;0.00;0.00;0.62;0.00;0.00;0.62;1.83;1.27;;;19.90;21.10;;;;;;2251652;61;20528;-53
2023/03/11 00:53:44;0.00;0.00;0.62;0.00;0.00;0.62;2.20;1.40;;;19.90;21.10;;;;;;2248784;61;20391;-50
2023/03/11 00:56:29;0.00;0.00;0.62;0.00;0.00;0.62;1.50;1.00;;;19.90;21.10;;;;;;2251512;61;20384;-51
2023/03/11 00:59:14;0.00;0.00;0.62;0.00;0.00;0.62;1.57;1.13;;;19.90;21.10;;;;;;2251981;61;20789;-58
2023/03/11 01:02:01;0.00;0.00;0.62;0.00;0.00;0.62;1.57;1.00;;;19.90;21.10;;;;;;2251943;61;20439;-57
2023/03/11 01:04:46;0.00;0.00;0.62;0.00;0.00;0.62;1.50;1.00;;;19.90;21.10;;;;;;2252389;61;20387;-51
2023/03/11 01:07:32;0.00;0.00;0.62;0.00;0.00;0.62;1.50;1.17;;;19.80;21.00;;;;;;2252549;61;20895;-53
2023/03/11 01:10:17;0.00;0.00;0.62;0.00;0.00;0.62;1.50;1.00;;;19.80;21.00;;;;;;2251692;61;20535;-52
2023/03/11 01:13:03;0.00;0.00;0.62;0.00;0.00;0.62;1.80;1.20;;;19.80;21.00;;;;;;2252356;61;20367;-51
2023/03/11 01:15:48;0.00;0.00;0.62;0.00;0.00;0.62;1.60;1.10;;;19.80;21.00;;;;;;2252514;61;20371;-50
2023/03/11 01:18:34;0.00;0.00;0.62;0.00;0.00;0.62;1.70;1.00;;;19.90;21.20;;;;;;2252898;61;20421;-52
2023/03/11 01:21:19;0.00;0.00;0.62;0.00;0.00;0.62;1.60;1.20;;;19.80;21.10;;;;;;2252668;61;20927;-50
2023/03/11 01:24:04;0.00;0.00;0.62;0.00;0.00;0.62;1.70;1.00;;;19.80;21.00;;;;;;2251933;61;20982;-51
2023/03/11 01:26:49;0.00;0.00;0.62;0.00;0.00;0.62;1.43;0.93;;;19.80;21.10;;;;;;2252750;61;20406;-55
2023/03/11 01:29:34;0.00;0.00;0.62;0.00;0.00;0.62;1.77;1.17;;;19.80;21.30;;;;;;2252308;61;20366;-51
2023/03/11 01:32:22;0.00;0.00;0.62;0.00;0.00;0.62;1.47;0.90;;;19.80;21.00;;;;;;2252165;61;20406;-49
2023/03/11 01:35:11;0.00;0.00;0.62;0.00;0.00;0.62;1.70;1.10;;;19.80;21.10;;;;;;2252633;61;20382;-56
2023/03/11 01:37:57;0.00;0.00;0.62;0.00;0.00;0.62;1.50;0.90;;;19.80;21.10;;;;;;2252376;61;20367;-52
2023/03/11 01:40:44;0.00;0.00;0.62;0.00;0.00;0.62;1.60;1.03;;;19.80;21.00;;;;;;2252133;61;20362;-55
2023/03/11 01:43:47;0.00;0.00;0.62;0.00;0.00;0.62;1.60;1.03;;;19.80;21.10;;;;;;2252190;61;20405;-52
2023/03/11 01:47:34;0.00;0.00;0.62;0.00;0.00;0.62;1.60;1.00;;;19.80;21.00;;;;;;2251841;61;21002;-53
2023/03/11 01:50:22;0.00;0.00;0.62;0.00;0.00;0.62;1.50;1.00;;;19.80;21.00;;;;;;2252342;61;20928;-53
2023/03/11 01:53:08;0.00;0.00;0.62;0.00;0.00;0.62;1.57;1.03;;;19.80;21.10;;;;;;2252094;61;20409;-52
2023/03/11 01:55:53;0.00;0.00;0.62;0.00;0.00;0.62;1.40;1.00;;;19.80;21.10;;;;;;2252523;61;20854;-54
2023/03/11 01:58:43;0.00;0.00;0.62;0.00;0.00;0.62;1.67;1.00;;;19.80;21.60;;;;;;2252219;61;20391;-51
2023/03/11 02:01:29;0.00;0.00;0.62;0.00;0.00;0.62;1.47;1.00;;;19.80;21.10;;;;;;2251813;61;20941;-52
2023/03/11 02:04:15;0.00;0.00;0.62;0.00;0.00;0.62;1.87;1.27;;;19.80;21.10;;;;;;2252145;61;20414;-51
2023/03/11 02:07:03;0.00;0.00;0.62;0.00;0.00;0.62;1.63;1.00;;;19.80;21.10;;;;;;2251912;61;20869;-54
2023/03/11 02:09:48;0.00;0.00;0.62;0.00;0.00;0.62;1.50;1.10;;;19.80;21.10;;;;;;2251593;61;20363;-54
2023/03/11 02:12:36;0.00;0.00;0.62;0.00;0.00;0.62;1.50;0.90;;;19.80;21.10;;;;;;2252506;61;20370;-54
2023/03/11 02:15:22;0.00;0.00;0.62;0.00;0.00;0.62;1.83;0.80;;;19.70;21.00;;;;;;2251663;61;20788;-53
2023/03/11 02:18:11;0.00;0.00;0.62;0.00;0.00;0.62;1.70;0.90;;;19.80;21.10;;;;;;2252227;61;20417;-52
2023/03/11 02:21:04;0.00;0.00;0.62;0.00;0.00;0.62;1.40;0.80;;;19.70;21.00;;;;;;2251797;61;20446;-52
2023/03/11 02:24:01;0.00;0.00;0.62;0.00;0.00;0.62;1.33;0.93;;;19.80;21.10;;;;;;2251637;61;20931;-52
2023/03/11 02:26:54;0.00;0.00;0.62;0.00;0.00;0.62;1.50;1.00;;;19.70;21.00;;;;;;2251822;61;20399;-51
2023/03/11 02:29:22;0.00;0.00;0.62;0.00;0.00;0.62;1.60;1.00;;;19.70;21.00;;;;;;2251572;61;20444;-52
2023/03/11 02:32:09;0.00;0.00;0.62;0.00;0.00;0.62;1.60;0.90;;;19.70;21.00;;;;;;2251676;61;20402;-56
2023/03/11 02:34:59;0.00;0.00;0.62;0.00;0.00;0.62;1.70;1.10;;;19.70;21.00;;;;;;2252298;61;20422;-55
2023/03/11 02:37:46;0.00;0.00;0.62;0.00;0.00;0.62;1.60;0.90;;;19.70;21.00;;;;;;2251640;61;20447;-56
2023/03/11 02:40:47;0.00;0.00;0.62;0.00;0.00;0.62;1.70;1.10;;;19.70;21.00;;;;;;2251730;61;20425;-54
2023/03/11 02:43:38;0.00;0.00;0.62;0.00;0.00;0.62;1.60;0.90;;;19.70;21.00;;;;;;2251801;61;20371;-56
2023/03/11 02:46:24;0.00;0.00;0.62;0.00;0.00;0.62;1.53;1.00;;;19.70;21.00;;;;;;2251259;61;20387;-57
2023/03/11 02:49:10;0.00;0.00;0.62;0.00;0.00;0.62;1.60;0.87;;;19.70;21.00;;;;;;2252153;61;20930;-53
2023/03/11 02:51:55;0.00;0.00;0.62;0.00;0.00;0.62;1.33;0.90;;;19.70;21.00;;;;;;2252305;61;20437;-53
2023/03/11 02:54:40;0.00;0.00;0.62;0.00;0.00;0.62;1.30;0.90;;;19.70;21.00;;;;;;2251624;61;20379;-57
2023/03/11 02:57:26;0.00;0.00;0.62;0.00;0.00;0.62;1.33;0.80;;;19.70;21.00;;;;;;2252286;61;20394;-56
2023/03/11 03:00:15;0.00;0.00;0.62;0.00;0.00;0.62;1.40;0.80;;;19.70;21.00;;;;;;2251058;61;20413;-50
2023/03/11 03:03:06;0.00;0.00;0.62;0.00;0.00;0.62;1.40;0.80;;;19.70;21.00;;;;;;2252153;61;20510;-52
2023/03/11 03:05:51;0.00;0.00;0.62;0.00;0.00;0.62;2.03;1.07;;;19.70;21.00;;;;;;2251508;61;20406;-50
2023/03/11 03:08:36;0.00;0.00;0.62;0.00;0.00;0.62;1.60;0.90;;;19.70;21.00;;;;;;2251894;61;20367;-50
2023/03/11 03:11:20;0.00;0.00;0.62;0.00;0.00;0.62;1.43;0.80;;;19.70;21.00;;;;;;2252174;61;20447;-49
2023/03/11 03:14:06;0.00;0.00;0.62;0.00;0.00;0.62;1.40;0.80;;;19.70;21.00;;;;;;2251693;61;20938;-52
2023/03/11 03:16:53;0.00;0.00;0.62;0.00;0.00;0.62;1.37;0.80;;;19.70;21.00;;;;;;2252272;61;20359;-54
2023/03/11 03:19:37;0.00;0.00;0.62;0.00;0.00;0.62;1.50;0.90;;;19.70;21.00;;;;;;2251979;61;20366;-54
2023/03/11 03:22:26;0.00;0.00;0.62;0.00;0.00;0.62;1.50;0.80;;;19.70;21.00;;;;;;2251462;61;20371;-52
2023/03/11 03:25:11;0.00;0.00;0.62;0.00;0.00;0.62;1.67;1.00;;;19.70;21.00;;;;;;2248997;61;20943;-51
2023/03/11 03:27:56;0.00;0.00;0.62;0.00;0.00;0.62;1.40;0.80;;;19.70;21.00;;;;;;2251826;61;20832;-54
2023/03/11 03:30:42;0.00;0.00;0.62;0.00;0.00;0.62;1.60;1.00;;;19.70;21.00;;;;;;2251481;61;20366;-54
2023/03/11 03:33:30;0.00;0.00;0.62;0.00;0.00;0.62;1.40;0.80;;;19.70;21.00;;;;;;2251743;61;20359;-55
2023/03/11 03:36:16;0.00;0.00;0.62;0.00;0.00;0.62;1.50;0.77;;;19.70;21.00;;;;;;2251802;61;20510;-50
2023/03/11 03:39:08;0.00;0.00;0.62;0.00;0.00;0.62;1.40;0.80;;;19.70;21.00;;;;;;2251799;61;20446;-54
2023/03/11 03:41:55;0.00;0.00;0.62;0.00;0.00;0.62;1.50;0.80;;;19.70;21.00;;;;;;2251966;61;20398;-55
2023/03/11 03:44:42;0.00;0.00;0.62;0.00;0.00;0.62;1.20;0.77;;;19.70;21.10;;;;;;2251179;61;20504;-50
2023/03/11 03:47:28;0.00;0.00;0.62;0.00;0.00;0.62;1.50;0.77;;;19.70;21.00;;;;;;2252050;61;20362;-50
2023/03/11 03:50:14;0.00;0.00;0.62;0.00;0.00;0.62;1.30;0.80;;;19.70;21.00;;;;;;2251209;61;20365;-52
2023/03/11 03:53:02;0.00;0.00;0.62;0.00;0.00;0.62;1.30;0.80;;;19.60;21.00;;;;;;2251646;61;20892;-52
2023/03/11 03:55:49;0.00;0.00;0.62;0.00;0.00;0.62;1.60;0.93;;;19.60;21.00;;;;;;2252410;61;20798;-52
2023/03/11 03:58:35;0.00;0.00;0.62;0.00;0.00;0.62;1.40;0.70;;;19.60;21.00;;;;;;2251673;61;20433;-50
2023/03/11 04:01:20;0.00;0.00;0.62;0.00;0.00;0.62;1.20;0.70;;;19.60;21.00;;;;;;2251788;61;20367;-51
2023/03/11 04:04:06;0.00;0.00;0.62;0.00;0.00;0.62;1.87;0.97;;;19.70;21.00;;;;;;2245101;61;20469;-53
2023/03/11 04:06:52;0.00;0.00;0.62;0.00;0.00;0.62;1.33;0.77;;;19.60;21.00;;;;;;2251187;61;20879;-50
2023/03/11 04:09:40;0.00;0.00;0.62;0.00;0.00;0.62;1.60;0.90;;;19.60;21.00;;;;;;2251509;61;20362;-50
2023/03/11 04:12:25;0.00;0.00;0.62;0.00;0.00;0.62;1.50;0.90;;;19.60;21.00;;;;;;2252011;61;20387;-52
2023/03/11 04:15:10;0.00;0.00;0.62;0.00;0.00;0.62;1.53;0.90;;;19.60;20.90;;;;;;2251451;61;20514;-52
2023/03/11 04:17:56;0.00;0.00;0.62;0.00;0.00;0.62;1.53;0.77;;;19.60;21.00;;;;;;2249147;61;20354;-54
2023/03/11 04:20:41;0.00;0.00;0.62;0.00;0.00;0.62;1.60;1.00;;;19.60;21.00;;;;;;2251287;61;20386;-53
2023/03/11 04:23:28;0.00;0.00;0.62;0.00;0.00;0.62;1.50;0.90;;;19.60;21.00;;;;;;2251756;61;20362;-53
2023/03/11 04:26:13;0.00;0.00;0.62;0.00;0.00;0.62;1.30;0.73;;;19.60;21.00;;;;;;2251557;61;20814;-51
2023/03/11 04:28:58;0.00;0.00;0.62;0.00;0.00;0.62;1.67;0.70;;;19.60;21.00;;;;;;2250982;61;20402;-50
2023/03/11 04:31:46;0.00;0.00;0.62;0.00;0.00;0.62;1.30;0.70;;;19.60;21.00;;;;;;2251790;61;20449;-50
2023/03/11 04:34:31;0.00;0.00;0.62;0.00;0.00;0.62;1.40;0.70;;;19.60;21.00;;;;;;2251929;61;20437;-53
2023/03/11 04:37:16;0.00;0.00;0.62;0.00;0.00;0.62;1.40;0.80;;;19.60;21.00;;;;;;2251716;61;20455;-52
2023/03/11 04:40:05;0.00;0.00;0.62;0.00;0.00;0.62;1.40;0.87;;;19.60;21.00;;;;;;2251198;61;21038;-54
2023/03/11 04:42:52;0.00;0.00;0.62;0.00;0.00;0.62;1.30;0.80;;;19.60;21.00;;;;;;2251738;61;20382;-53
2023/03/11 04:45:38;0.00;0.00;0.62;0.00;0.00;0.62;1.40;0.80;;;19.60;21.00;;;;;;2251419;61;20394;-52
2023/03/11 04:48:26;0.00;0.00;0.62;0.00;0.00;0.62;1.73;0.80;;;19.60;21.00;;;;;;2251868;61;20903;-51
2023/03/11 04:51:12;0.00;0.00;0.62;0.00;0.00;0.62;1.80;0.90;;;19.60;21.00;;;;;;2250952;61;20363;-53
2023/03/11 04:53:57;0.00;0.00;0.62;0.00;0.00;0.62;1.80;1.00;;;19.60;21.00;;;;;;2251473;61;20463;-55
2023/03/11 04:56:44;0.00;0.00;0.62;0.00;0.00;0.62;1.30;0.70;;;19.60;21.00;;;;;;2251615;61;20896;-52
2023/03/11 04:59:29;0.00;0.00;0.62;0.00;0.00;0.62;1.40;0.80;;;19.60;21.00;;;;;;2251546;61;20410;-53
2023/03/11 05:02:14;0.00;0.00;0.62;0.00;0.00;0.62;1.30;0.70;;;19.60;21.00;;;;;;2251809;61;20354;-51
2023/03/11 05:05:09;0.00;0.00;0.62;0.00;0.00;0.62;1.30;0.80;;;19.60;21.00;;;;;;2251251;61;20475;-53
2023/03/11 05:07:55;0.00;0.00;0.62;0.00;0.00;0.62;1.53;0.80;;;19.60;21.00;;;;;;2251712;61;20367;-49
2023/03/11 05:10:41;0.00;0.00;0.62;0.00;0.00;0.62;1.70;1.00;;;19.60;21.00;;;;;;2251326;61;20410;-53
2023/03/11 05:13:29;0.00;0.00;0.62;0.00;0.00;0.62;1.50;0.80;;;19.60;21.00;;;;;;2250694;61;20506;-55
2023/03/11 05:16:14;0.00;0.00;0.62;0.00;0.00;0.62;1.40;0.80;;;19.60;21.00;;;;;;2251850;61;20391;-52
2023/03/11 05:18:58;0.00;0.00;0.62;0.00;0.00;0.62;1.70;0.77;;;19.50;20.90;;;;;;2251447;61;20359;-56
2023/03/11 05:21:43;0.00;0.00;0.62;0.00;0.00;0.62;1.30;0.80;;;19.50;21.00;;;;;;2251240;61;20478;-52
2023/03/11 05:24:29;0.00;0.00;0.62;0.00;0.00;0.62;1.50;0.80;;;19.60;21.00;;;;;;2251644;61;20383;-49
2023/03/11 05:27:18;0.00;0.00;0.62;0.00;0.00;0.62;2.33;0.80;;;19.50;21.00;;;;;;2251257;61;20389;-54
2023/03/11 05:30:10;0.00;0.00;0.62;0.00;0.00;0.62;1.30;0.77;;;19.50;20.90;;;;;;2250947;61;20915;-51
2023/03/11 05:32:57;0.00;0.00;0.62;0.00;0.00;0.62;1.30;0.70;;;19.50;21.00;;;;;;2251784;61;20414;-51
2023/03/11 05:35:42;0.00;0.00;0.62;0.00;0.00;0.62;1.40;0.70;;;19.50;20.90;;;;;;2251338;61;20442;-55
2023/03/11 05:38:27;0.00;0.00;0.62;0.00;0.00;0.62;1.73;0.80;;;19.60;21.00;;;;;;2251686;61;20366;-50
2023/03/11 05:41:13;0.00;0.00;0.62;0.00;0.00;0.62;1.40;0.80;;;19.50;20.90;;;;;;2251107;61;20414;-53
2023/03/11 05:44:00;0.00;0.00;0.62;0.00;0.00;0.62;1.57;0.83;;;19.50;21.00;;;;;;2251242;61;20394;-51
2023/03/11 05:46:46;0.00;0.00;0.62;0.00;0.00;0.62;1.63;0.90;;;19.50;21.00;;;;;;2252373;61;20475;-52
2023/03/11 05:49:32;0.00;0.00;0.62;0.00;0.00;0.62;1.40;0.80;;;19.50;21.00;;;;;;2251487;61;20777;-51
2023/03/11 05:52:17;0.00;0.00;0.62;0.00;0.00;0.62;1.30;0.80;;;19.50;21.00;;;;;;2252425;61;20943;-51
2023/03/11 05:55:02;0.00;0.00;0.62;0.00;0.00;0.62;1.30;0.80;;;19.50;21.00;;;;;;2252280;61;20390;-52
2023/03/11 05:57:51;0.00;0.00;0.62;0.00;0.00;0.62;1.30;0.70;;;19.50;21.00;;;;;;2251833;61;20362;-55
2023/03/11 06:00:36;0.00;0.00;0.62;0.00;0.00;0.62;1.30;0.70;;;19.50;21.00;;;;;;2251927;61;20390;-50
2023/03/11 06:03:24;0.00;0.00;0.62;0.00;0.00;0.62;1.60;0.90;;;19.50;21.00;;;;;;2251687;61;20410;-51
2023/03/11 06:06:10;0.00;0.00;0.62;0.00;0.00;0.62;1.30;0.80;;;19.50;21.00;;;;;;2252326;61;20923;-52
2023/03/11 06:08:56;0.00;0.00;0.62;0.00;0.00;0.62;1.50;0.80;;;19.50;21.00;;;;;;2252099;61;20433;-52
2023/03/11 06:11:42;0.00;0.00;0.62;0.00;0.00;0.62;2.33;0.80;;;19.50;21.50;;;;;;2251946;61;20518;-53
2023/03/11 06:14:30;0.00;0.00;0.62;0.00;0.00;0.62;1.20;0.70;;;19.50;21.00;;;;;;2249121;61;20430;-51
2023/03/11 06:17:15;0.00;0.00;0.62;0.00;0.00;0.62;1.60;0.90;;;19.50;21.00;;;;;;2252383;61;20498;-53
2023/03/11 06:20:03;0.00;0.00;0.62;0.00;0.00;0.62;1.30;0.80;;;19.50;21.00;;;;;;2251340;61;20820;-52
2023/03/11 06:22:48;0.00;0.00;0.62;0.00;0.00;0.62;1.33;0.73;;;19.50;21.00;;;;;;2252341;61;20371;-51
2023/03/11 06:25:34;0.00;0.00;0.62;0.00;0.00;0.62;1.87;0.80;;;19.50;21.00;;;;;;2251785;61;20394;-51
2023/03/11 06:28:19;0.00;0.00;0.62;0.00;0.00;0.62;1.40;0.93;;;19.50;21.00;;;;;;2251790;61;20370;-55
2023/03/11 06:31:08;0.00;0.00;0.62;0.00;0.00;0.62;1.30;0.77;;;19.50;21.00;;;;;;2252271;61;20832;-53
2023/03/11 06:33:58;0.00;0.00;0.62;0.00;0.00;0.62;1.50;0.73;;;19.50;21.00;;;;;;2251831;61;20449;-52
2023/03/11 06:36:45;0.00;0.00;0.62;0.00;0.00;0.62;1.30;0.70;;;19.50;21.00;;;;;;2252393;61;20733;-55
2023/03/11 06:39:29;0.00;0.00;0.62;0.00;0.00;0.62;1.70;0.90;;;19.50;21.00;;;;;;2249089;61;20900;-50
2023/03/11 06:42:14;0.00;0.00;0.62;0.00;0.00;0.62;1.40;0.80;;;19.40;20.90;;;;;;2251681;61;20363;-53
2023/03/11 06:45:01;0.00;0.00;0.62;0.00;0.00;0.62;1.47;0.87;;;19.50;21.00;;;;;;2252015;61;20479;-54
2023/03/11 06:47:46;0.00;0.00;0.62;0.00;0.00;0.62;1.50;0.80;;;19.50;21.00;;;;;;2251901;61;20367;-54
2023/03/11 06:50:31;0.00;0.00;0.62;0.00;0.00;0.62;1.40;0.80;;;19.50;21.00;;;;;;2252099;61;20367;-54
2023/03/11 06:53:20;0.00;0.00;0.62;0.00;0.00;0.62;1.53;0.83;;;19.50;21.00;;;;;;2252090;61;20379;-52
2023/03/11 06:56:08;0.00;0.00;0.62;0.00;0.00;0.62;1.30;0.70;;;19.40;21.00;;;;;;2251766;61;20389;-51
2023/03/11 06:58:59;0.00;0.00;0.62;0.00;0.00;0.62;1.40;0.80;;;19.40;20.90;;;;;;2251683;61;20383;-50
2023/03/11 07:01:49;0.00;0.00;0.62;0.00;0.00;0.62;1.60;0.80;;;19.40;20.90;;;;;;2252570;61;20505;-50
2023/03/11 07:04:34;0.00;0.00;0.62;0.00;0.00;0.62;1.50;0.73;;;19.40;21.00;;;;;;2251661;61;20511;-55
2023/03/11 07:07:20;0.00;0.00;0.62;0.00;0.00;0.62;1.57;0.80;;;19.40;21.00;;;;;;2252363;61;20410;-54
2023/03/11 07:10:08;0.00;0.00;0.62;0.00;0.00;0.62;1.80;0.93;;;19.50;21.00;;;;;;2251371;61;20398;-51
2023/03/11 07:12:53;0.00;0.00;0.62;0.00;0.00;0.62;1.73;0.93;;;19.40;21.00;;;;;;2251620;61;20422;-54
2023/03/11 07:15:38;0.00;0.00;0.62;0.00;0.00;0.62;1.43;0.90;;;19.40;21.00;;;;;;2252502;61;20459;-51
2023/03/11 07:18:23;0.00;0.00;0.62;0.00;0.00;0.62;1.57;0.80;;;19.40;21.00;;;;;;2251919;61;20421;-54
2023/03/11 07:21:10;0.00;0.00;0.62;0.00;0.00;0.62;1.90;1.10;;;19.50;21.00;;;;;;2251603;61;20386;-52
2023/03/11 07:23:58;0.00;0.00;0.62;0.00;0.00;0.62;1.63;0.80;;;19.40;21.00;;;;;;2252459;61;20386;-53
2023/03/11 07:26:44;0.00;0.00;0.62;0.00;0.00;0.62;2.43;1.00;;;19.50;21.00;;;;;;2251577;61;20414;-50
2023/03/11 07:29:28;0.00;0.00;0.62;0.00;0.00;0.62;1.70;0.90;;;19.50;21.00;;;;;;2252155;61;20444;-52
2023/03/11 07:32:13;0.00;0.00;0.62;0.00;0.00;0.62;1.60;0.83;;;19.50;21.00;;;;;;2252019;61;20417;-52
2023/03/11 07:34:58;0.00;0.00;0.62;0.00;0.00;0.62;1.67;0.90;;;19.40;21.00;;;;;;2251980;61;20382;-51
2023/03/11 07:37:42;0.00;0.00;0.62;0.00;0.00;0.62;1.40;0.90;;;19.40;21.00;;;;;;2252561;61;20447;-52
2023/03/11 07:40:27;0.00;0.00;0.62;0.00;0.00;0.62;1.87;1.00;;;19.40;21.00;;;;;;2251569;61;20486;-54
2023/03/11 07:43:13;0.00;0.00;0.62;0.00;0.00;0.62;1.80;0.90;;;19.40;21.00;;;;;;2252014;61;20381;-50
2023/03/11 07:46:03;0.00;0.00;0.62;0.00;0.00;0.62;1.93;1.00;;;19.40;21.00;;;;;;2252031;61;20391;-57
2023/03/11 07:48:50;0.00;0.00;0.62;0.00;0.00;0.62;1.70;1.10;;;19.40;21.00;;;;;;2251776;61;20458;-50
2023/03/11 07:51:36;0.00;0.00;0.62;0.00;0.00;0.62;1.80;0.80;;;19.40;21.00;;;;;;2252655;61;20852;-55
2023/03/11 07:54:21;0.00;0.00;0.62;0.00;0.00;0.62;2.00;1.10;;;19.40;21.00;;;;;;2252021;61;20883;-55
2023/03/11 07:57:13;0.00;0.00;0.62;0.00;0.00;0.62;1.40;0.90;;;19.40;21.00;;;;;;2252076;61;20903;-52
2023/03/11 07:59:59;0.00;0.00;0.62;0.00;0.00;0.62;1.53;0.80;;;19.40;21.00;;;;;;2251912;61;20773;-51
2023/03/11 08:02:44;0.00;0.00;0.62;0.00;0.00;0.62;1.30;0.80;;;19.40;21.00;;;;;;2252099;61;20969;-52
2023/03/11 08:05:33;0.00;0.00;0.62;0.00;0.00;0.62;1.70;1.10;;;19.40;21.00;;;;;;2252079;61;20792;-52
2023/03/11 08:08:17;0.00;0.00;0.62;0.00;0.00;0.62;1.60;0.90;;;19.50;21.10;;;;;;2252140;61;20382;-51
2023/03/11 08:11:03;0.00;0.00;0.62;0.00;0.00;0.62;1.97;1.20;;;19.50;21.10;;;;;;2251304;61;20361;-53
2023/03/11 08:13:48;0.00;0.00;0.62;0.00;0.00;0.62;1.60;0.90;;;19.50;21.20;;;;;;2251824;61;20382;-54
2023/03/11 08:16:34;0.00;0.00;0.62;0.00;0.00;0.62;2.97;1.43;;;19.50;21.20;;;;;;2252248;61;20370;-55
2023/03/11 08:19:19;0.00;0.00;0.62;0.00;0.00;0.62;1.90;1.07;;;19.50;21.20;;;;;;2251450;61;20896;-50
2023/03/11 08:22:04;0.00;0.00;0.62;0.00;0.00;0.62;1.70;0.90;;;19.50;21.20;;;;;;2252162;61;20896;-56
2023/03/11 08:24:51;0.00;0.00;0.62;0.00;0.00;0.62;1.93;1.17;;;19.40;21.10;;;;;;2251918;61;20390;-50
2023/03/11 08:27:37;0.00;0.00;0.62;0.00;0.00;0.62;1.57;1.00;;;19.40;21.10;;;;;;2251894;61;20810;-50
2023/03/11 08:30:23;0.00;0.00;0.62;0.00;0.00;0.62;1.67;1.00;;;19.40;21.10;;;;;;2251982;61;20453;-50
2023/03/11 08:33:09;0.00;0.00;0.62;0.00;0.00;0.62;1.70;1.30;;;19.50;21.20;;;;;;2251378;61;20418;-54
2023/03/11 08:35:54;0.00;0.00;0.62;0.00;0.00;0.62;1.43;0.90;;;19.40;21.20;;;;;;2252256;61;20371;-51
2023/03/11 08:38:39;0.00;0.00;0.62;0.00;0.00;0.62;1.90;0.97;;;19.50;21.20;;;;;;2252457;61;20429;-52
2023/03/11 08:41:23;0.00;0.00;0.62;0.00;0.00;0.62;2.03;1.23;;;19.50;21.20;;;;;;2252183;61;20450;-59
2023/03/11 08:44:08;0.00;0.00;0.62;0.00;0.00;0.62;2.33;1.00;;;19.50;21.20;;;;;;2251902;61;20482;-49
2023/03/11 08:46:53;0.00;0.00;0.62;0.00;0.00;0.62;1.70;1.10;;;19.50;21.20;;;;;;2251916;61;20414;-49
2023/03/11 08:49:39;0.00;0.00;0.62;0.00;0.00;0.62;1.40;0.90;;;19.50;21.20;;;;;;2251495;61;20391;-53
2023/03/11 08:52:23;0.00;0.00;0.62;0.00;0.00;0.62;2.37;1.37;;;19.50;21.30;;;;;;2252259;61;20386;-50
2023/03/11 08:55:12;0.00;0.00;0.62;0.00;0.00;0.62;2.57;1.30;;;19.50;21.30;;;;;;2251430;61;20434;-50
2023/03/11 08:57:57;0.00;0.00;0.62;0.00;0.00;0.62;1.70;0.90;;;19.50;21.30;;;;;;2252343;61;20359;-50
2023/03/11 09:00:41;0.00;0.00;0.62;0.00;0.00;0.62;1.70;1.00;;;19.50;21.30;;;;;;2252032;61;20382;-53
2023/03/11 09:03:26;0.00;0.00;0.62;0.00;0.00;0.62;2.13;1.30;;;19.60;21.30;;;;;;2251820;61;20946;-50
2023/03/11 09:06:15;0.00;0.00;0.62;0.00;0.00;0.62;2.00;1.30;;;19.60;21.30;;;;;;2252030;61;20390;-53
2023/03/11 09:09:00;0.00;0.00;0.62;0.00;0.00;0.62;2.10;1.30;;;19.60;21.30;;;;;;2251510;61;20427;-55
2023/03/11 09:11:44;0.00;0.00;0.62;0.00;0.00;0.62;1.73;1.10;;;19.60;21.30;;;;;;2251858;61;20398;-51
2023/03/11 09:14:29;0.00;0.00;0.62;0.00;0.00;0.62;1.60;0.97;;;19.60;21.30;;;;;;2252272;61;20410;-53
2023/03/11 09:17:13;0.00;0.00;0.62;0.00;0.00;0.62;2.20;1.40;;;19.60;21.30;;;;;;2251514;61;20417;-52
2023/03/11 09:19:58;0.00;0.00;0.62;0.00;0.00;0.62;1.83;1.07;;;19.60;21.30;;;;;;2251383;61;20399;-54
2023/03/11 09:22:45;0.00;0.00;0.62;0.00;0.00;0.62;1.50;0.90;;;19.60;21.30;;;;;;2252675;61;20390;-50
2023/03/11 09:25:29;0.00;0.00;0.62;0.00;0.00;0.62;1.60;1.10;;;19.60;21.30;;;;;;2252028;61;20441;-51
2023/03/11 09:28:14;0.00;0.00;0.62;0.00;0.00;0.62;2.20;1.37;;;19.70;21.40;;;;;;2252798;61;20362;-54
2023/03/11 09:30:59;0.00;0.00;0.62;0.00;0.00;0.62;2.27;1.30;;;19.70;21.40;;;;;;2252338;61;20759;-53
2023/03/11 09:33:45;0.00;0.00;0.62;0.00;0.00;0.62;2.37;1.37;;;19.70;21.40;;;;;;2252249;61;20468;-54
2023/03/11 09:36:29;0.00;0.00;0.62;0.00;0.00;0.62;2.53;1.50;;;19.70;21.40;;;;;;2252992;61;20443;-51
2023/03/11 09:39:16;0.00;0.00;0.62;0.00;0.00;0.62;2.93;1.90;;;19.70;21.40;;;;;;2251974;61;21216;-52
2023/03/11 09:42:04;0.00;0.00;0.62;0.00;0.00;0.62;2.10;1.27;;;19.70;21.40;;;;;;2252872;61;20366;-49
2023/03/11 09:44:59;0.00;0.00;0.62;0.00;0.00;0.62;1.70;1.20;;;19.70;21.40;;;;;;2252540;61;20438;-52
2023/03/11 09:48:01;0.00;0.00;0.62;0.00;0.00;0.62;2.87;1.63;;;19.70;21.40;;;;;;2252332;61;20389;-50
2023/03/11 09:50:52;0.00;0.00;0.62;0.00;0.00;0.62;2.53;1.80;;;19.80;21.50;;;;;;2252489;61;20413;-55
2023/03/11 09:53:41;0.00;0.00;0.62;0.00;0.00;0.62;2.47;1.40;;;19.80;21.50;;;;;;2252478;61;20830;-53
2023/03/11 09:56:27;0.00;0.00;0.62;0.00;0.00;0.62;2.40;1.40;;;19.80;21.50;;;;;;2252633;61;20417;-54
2023/03/11 09:59:17;0.00;0.00;0.62;0.00;0.00;0.62;2.10;1.40;;;19.80;21.50;;;;;;2252041;61;20390;-51
2023/03/11 10:02:04;0.00;0.00;0.62;0.00;0.00;0.62;2.30;1.50;;;19.80;21.60;;;;;;2252107;61;20869;-52
2023/03/11 10:04:56;0.00;0.00;0.62;0.00;0.00;0.62;1.90;1.23;;;19.90;21.60;;;;;;2252709;61;20406;-51
2023/03/11 10:07:43;0.00;0.00;0.62;0.00;0.00;0.62;1.67;1.20;;;19.90;21.70;;;;;;2252292;61;20790;-53
2023/03/11 10:10:33;0.00;0.00;0.62;0.00;0.00;0.62;2.20;1.40;;;19.90;21.60;;;;;;2252072;61;20375;-51
2023/03/11 10:13:31;0.00;0.00;0.62;0.00;0.00;0.62;1.50;1.17;;;19.90;21.60;;;;;;2252706;61;20814;-51
2023/03/11 10:16:26;0.00;0.00;0.62;0.00;0.00;0.62;1.83;1.30;;;19.90;21.60;;;;;;2251880;61;20390;-54
2023/03/11 10:19:20;0.00;0.00;0.62;0.00;0.00;0.62;1.90;1.30;;;20.00;21.70;;;;;;2252549;61;20366;-49
2023/03/11 10:22:13;0.00;0.00;0.62;0.00;0.00;0.62;1.90;1.20;;;20.00;21.70;;;;;;2252561;61;20359;-50
2023/03/11 10:25:10;0.00;0.00;0.62;0.00;0.00;0.62;1.90;1.20;;;20.00;21.70;;;;;;2252148;61;20833;-56
2023/03/11 10:28:01;0.00;0.00;0.62;0.00;0.00;0.62;2.60;1.53;;;20.00;21.70;;;;;;2252488;61;20355;-51
2023/03/11 10:30:51;0.00;0.00;0.62;0.00;0.00;0.62;2.00;1.30;;;20.00;21.70;;;;;;2251896;61;20422;-50
2023/03/11 10:33:42;0.00;0.00;0.62;0.00;0.00;0.62;2.07;1.40;;;20.10;21.80;;;;;;2252377;61;20925;-53
2023/03/11 10:36:36;0.00;0.00;0.62;0.00;0.00;0.62;2.00;1.20;;;20.10;22.30;;;;;;2252238;61;20422;-51
2023/03/11 10:39:23;0.00;0.00;0.62;0.00;0.00;0.62;1.80;1.37;;;20.10;21.80;;;;;;2251407;61;20378;-50
2023/03/11 10:42:14;0.00;0.00;0.62;0.00;0.00;0.62;2.20;1.47;;;20.10;21.80;;;;;;2252558;61;20374;-50
2023/03/11 10:44:59;0.00;0.00;0.62;0.00;0.00;0.62;1.83;1.10;;;20.20;21.90;;;;;;2252049;61;20385;-50
2023/03/11 10:47:45;0.00;0.00;0.62;0.00;0.00;0.62;2.53;1.50;;;20.20;21.90;;;;;;2252325;61;20551;-49
2023/03/11 10:50:33;0.00;0.00;0.62;0.00;0.00;0.62;2.60;1.63;;;20.20;21.90;;;;;;2251827;61;20371;-54
2023/03/11 10:53:19;0.00;0.00;0.62;0.00;0.00;0.62;2.20;1.43;;;20.20;21.90;;;;;;2252251;61;20459;-52
2023/03/11 10:56:05;0.00;0.00;0.62;0.00;0.00;0.62;2.27;1.47;;;20.20;21.80;;;;;;2252742;61;20895;-50
2023/03/11 10:58:50;0.00;0.00;0.62;0.00;0.00;0.62;2.10;1.40;;;20.30;21.90;;;;;;2252355;61;20370;-56